createdAt,value
2017-01-31T00:00:37.817Z,6.28
2017-01-31T00:01:37.833Z,6.3
2017-01-31T00:02:37.841Z,6.27
2017-01-31T00:03:37.855Z,6.28
2017-01-31T00:04:37.893Z,6.36
2017-01-31T00:05:37.877Z,6.38
2017-01-31T00:06:37.887Z,6.27
2017-01-31T00:07:37.896Z,6.33
2017-01-31T00:08:37.913Z,6.35
2017-01-31T00:09:37.921Z,6.26
2017-01-31T00:10:37.932Z,6.28
2017-01-31T00:11:37.944Z,6.31
2017-01-31T00:12:37.954Z,6.33
2017-01-31T00:13:37.579Z,6.33
2017-01-31T00:14:37.978Z,6.35
2017-01-31T00:15:37.995Z,6.27
2017-01-31T00:16:38.003Z,6.27
2017-01-31T00:17:38.024Z,6.3
2017-01-31T00:18:38.026Z,6.3
2017-01-31T00:19:38.045Z,6.35
2017-01-31T00:20:38.052Z,6.31
2017-01-31T00:21:38.059Z,6.3
2017-01-31T00:22:38.071Z,6.31
2017-01-31T00:23:38.085Z,6.33
2017-01-31T00:24:37.700Z,6.31
2017-01-31T00:25:38.111Z,6.3
2017-01-31T00:26:38.117Z,6.35
2017-01-31T00:27:38.137Z,6.35
2017-01-31T00:28:37.749Z,6.36
2017-01-31T00:29:37.763Z,6.35
2017-01-31T00:30:38.169Z,6.3
2017-01-31T00:31:38.177Z,6.31
2017-01-31T00:32:38.227Z,6.36
2017-01-31T00:33:38.224Z,6.31
2017-01-31T00:34:38.214Z,6.36
2017-01-31T00:35:38.224Z,6.36
2017-01-31T00:36:38.243Z,6.36
2017-01-31T00:37:38.251Z,6.36
2017-01-31T00:38:38.263Z,6.3
2017-01-31T00:39:38.284Z,6.33
2017-01-31T00:40:38.288Z,6.36
2017-01-31T00:41:38.292Z,6.33
2017-01-31T00:42:38.305Z,6.33
2017-01-31T00:43:38.317Z,6.33
2017-01-31T00:44:37.935Z,6.3
2017-01-31T00:45:38.346Z,6.33
2017-01-31T00:46:38.354Z,6.33
2017-01-31T00:47:37.971Z,6.33
2017-01-31T00:48:38.386Z,6.36
2017-01-31T00:49:38.388Z,6.36
2017-01-31T00:50:38.397Z,6.38
2017-01-31T00:51:38.409Z,6.36
2017-01-31T00:52:38.421Z,6.36
2017-01-31T00:53:38.431Z,6.36
2017-01-31T00:54:38.446Z,6.33
2017-01-31T00:55:38.454Z,6.38
2017-01-31T00:56:38.469Z,6.33
2017-01-31T00:57:38.510Z,6.36
2017-01-31T00:58:38.486Z,6.33
2017-01-31T00:59:38.506Z,6.38
2017-01-31T01:00:38.512Z,6.36
2017-01-31T01:01:38.524Z,6.31
2017-01-31T01:02:38.543Z,6.33
2017-01-31T01:03:38.153Z,6.39
2017-01-31T01:04:38.558Z,6.31
2017-01-31T01:05:38.577Z,6.33
2017-01-31T01:06:38.584Z,6.31
2017-01-31T01:07:38.598Z,6.31
2017-01-31T01:08:38.608Z,6.36
2017-01-31T01:09:38.632Z,6.33
2017-01-31T01:10:38.630Z,6.38
2017-01-31T01:11:38.651Z,6.33
2017-01-31T01:12:38.688Z,6.41
2017-01-31T01:13:38.668Z,6.41
2017-01-31T01:14:38.677Z,6.33
2017-01-31T01:15:38.686Z,6.33
2017-01-31T01:16:38.700Z,6.39
2017-01-31T01:17:38.321Z,6.33
2017-01-31T01:18:38.728Z,6.35
2017-01-31T01:19:38.733Z,6.35
2017-01-31T01:20:38.744Z,6.41
2017-01-31T01:21:38.764Z,6.38
2017-01-31T01:22:38.770Z,6.33
2017-01-31T01:23:38.783Z,6.31
2017-01-31T01:24:38.795Z,6.31
2017-01-31T01:25:38.809Z,6.35
2017-01-31T01:26:38.815Z,6.35
2017-01-31T01:27:38.832Z,6.35
2017-01-31T01:28:38.843Z,6.33
2017-01-31T01:29:38.892Z,6.3
2017-01-31T01:30:38.474Z,6.33
2017-01-31T01:31:38.879Z,6.33
2017-01-31T01:32:38.893Z,6.31
2017-01-31T01:33:38.903Z,6.3
2017-01-31T01:34:38.914Z,6.3
2017-01-31T01:35:38.928Z,6.3
2017-01-31T01:36:38.941Z,6.33
2017-01-31T01:37:39.151Z,6.36
2017-01-31T01:38:38.959Z,6.3
2017-01-31T01:39:38.974Z,6.3
2017-01-31T01:40:38.985Z,6.39
2017-01-31T01:41:38.992Z,6.39
2017-01-31T01:42:39.006Z,6.33
2017-01-31T01:43:39.012Z,6.42
2017-01-31T01:44:39.052Z,6.35
2017-01-31T01:45:39.040Z,6.33
2017-01-31T01:46:39.051Z,6.36
2017-01-31T01:47:39.062Z,6.35
2017-01-31T01:48:39.073Z,6.31
2017-01-31T01:49:39.084Z,6.35
2017-01-31T01:50:39.092Z,6.38
2017-01-31T01:51:39.104Z,6.35
2017-01-31T01:52:39.128Z,6.31
2017-01-31T01:53:39.142Z,6.35
2017-01-31T01:54:39.156Z,6.35
2017-01-31T01:55:39.166Z,6.35
2017-01-31T01:56:39.181Z,6.33
2017-01-31T01:57:39.237Z,6.38
2017-01-31T01:58:38.802Z,6.35
2017-01-31T01:59:39.215Z,6.31
2017-01-31T02:00:39.258Z,6.41
2017-01-31T02:01:39.232Z,6.36
2017-01-31T02:02:39.272Z,6.33
2017-01-31T02:03:39.273Z,6.35
2017-01-31T02:04:39.270Z,6.3
2017-01-31T02:05:39.280Z,6.38
2017-01-31T02:06:39.293Z,6.38
2017-01-31T02:07:39.308Z,6.35
2017-01-31T02:08:39.314Z,6.3
2017-01-31T02:09:39.323Z,6.35
2017-01-31T02:10:39.346Z,6.36
2017-01-31T02:11:39.363Z,6.36
2017-01-31T02:12:39.358Z,6.38
2017-01-31T02:13:39.375Z,6.39
2017-01-31T02:14:39.388Z,6.36
2017-01-31T02:15:39.394Z,6.35
2017-01-31T02:16:39.410Z,6.33
2017-01-31T02:17:39.428Z,6.36
2017-01-31T02:18:39.424Z,6.31
2017-01-31T02:19:39.447Z,6.36
2017-01-31T02:20:39.123Z,6.36
2017-01-31T02:21:39.470Z,6.38
2017-01-31T02:22:39.086Z,6.3
2017-01-31T02:23:39.097Z,6.3
2017-01-31T02:24:39.506Z,6.36
2017-01-31T02:25:39.517Z,6.36
2017-01-31T02:26:39.526Z,6.35
2017-01-31T02:27:39.551Z,6.35
2017-01-31T02:28:39.584Z,6.33
2017-01-31T02:29:39.562Z,6.36
2017-01-31T02:30:39.583Z,6.39
2017-01-31T02:31:39.589Z,6.3
2017-01-31T02:32:39.598Z,6.31
2017-01-31T02:33:39.610Z,6.33
2017-01-31T02:34:39.618Z,6.35
2017-01-31T02:35:39.631Z,6.31
2017-01-31T02:36:39.645Z,6.31
2017-01-31T02:37:39.655Z,6.3
2017-01-31T02:38:39.664Z,6.42
2017-01-31T02:39:39.687Z,6.38
2017-01-31T02:40:39.692Z,6.33
2017-01-31T02:41:39.702Z,6.36
2017-01-31T02:42:39.717Z,6.39
2017-01-31T02:43:39.730Z,6.38
2017-01-31T02:44:39.737Z,6.33
2017-01-31T02:45:39.746Z,6.44
2017-01-31T02:46:39.762Z,6.46
2017-01-31T02:47:39.775Z,6.45
2017-01-31T02:48:39.788Z,6.51
2017-01-31T02:49:39.803Z,6.45
2017-01-31T02:50:39.838Z,6.33
2017-01-31T02:51:39.820Z,6.39
2017-01-31T02:52:39.434Z,6.46
2017-01-31T02:53:39.843Z,6.46
2017-01-31T02:54:39.854Z,6.46
2017-01-31T02:55:39.871Z,6.46
2017-01-31T02:56:39.873Z,6.33
2017-01-31T02:57:39.889Z,6.38
2017-01-31T02:58:39.897Z,6.33
2017-01-31T02:59:39.917Z,6.35
2017-01-31T03:00:39.928Z,6.46
2017-01-31T03:01:39.939Z,6.49
2017-01-31T03:02:39.949Z,6.45
2017-01-31T03:03:39.961Z,6.38
2017-01-31T03:04:39.973Z,6.49
2017-01-31T03:05:39.985Z,6.49
2017-01-31T03:06:39.993Z,6.38
2017-01-31T03:07:40.006Z,6.38
2017-01-31T03:08:40.019Z,6.48
2017-01-31T03:09:40.032Z,6.49
2017-01-31T03:10:40.038Z,6.49
2017-01-31T03:11:39.657Z,6.46
2017-01-31T03:12:40.065Z,6.49
2017-01-31T03:13:40.075Z,6.42
2017-01-31T03:14:40.088Z,6.49
2017-01-31T03:15:40.101Z,6.51
2017-01-31T03:16:40.115Z,6.44
2017-01-31T03:17:40.124Z,6.38
2017-01-31T03:18:39.348Z,6.49
2017-01-31T03:19:40.156Z,6.51
2017-01-31T03:20:40.159Z,6.45
2017-01-31T03:21:40.172Z,6.46
2017-01-31T03:22:40.186Z,6.51
2017-01-31T03:23:40.193Z,6.44
2017-01-31T03:24:40.206Z,6.51
2017-01-31T03:25:40.219Z,6.51
2017-01-31T03:26:40.227Z,6.45
2017-01-31T03:27:40.247Z,6.46
2017-01-31T03:28:40.252Z,6.51
2017-01-31T03:29:40.260Z,6.45
2017-01-31T03:30:40.275Z,6.48
2017-01-31T03:31:40.284Z,6.44
2017-01-31T03:32:40.297Z,6.42
2017-01-31T03:33:40.312Z,6.45
2017-01-31T03:34:40.321Z,6.46
2017-01-31T03:35:40.332Z,6.49
2017-01-31T03:36:40.340Z,6.44
2017-01-31T03:37:40.359Z,6.45
2017-01-31T03:38:40.363Z,6.52
2017-01-31T03:39:40.375Z,6.42
2017-01-31T03:40:40.401Z,6.56
2017-01-31T03:41:40.406Z,6.52
2017-01-31T03:42:40.418Z,6.48
2017-01-31T03:43:40.427Z,6.45
2017-01-31T03:44:40.446Z,6.49
2017-01-31T03:45:40.457Z,6.45
2017-01-31T03:46:40.464Z,6.48
2017-01-31T03:47:40.476Z,6.44
2017-01-31T03:48:40.488Z,6.48
2017-01-31T03:49:40.499Z,6.45
2017-01-31T03:50:40.514Z,6.45
2017-01-31T03:51:40.525Z,6.49
2017-01-31T03:52:40.529Z,6.46
2017-01-31T03:53:40.549Z,6.48
2017-01-31T03:54:40.556Z,6.42
2017-01-31T03:55:40.565Z,6.49
2017-01-31T03:56:40.577Z,6.49
2017-01-31T03:57:40.600Z,6.45
2017-01-31T03:58:40.604Z,6.46
2017-01-31T03:59:40.615Z,6.49
2017-01-31T04:00:40.620Z,6.54
2017-01-31T04:01:40.650Z,6.51
2017-01-31T04:02:40.656Z,6.49
2017-01-31T04:03:40.672Z,6.42
2017-01-31T04:04:40.678Z,6.46
2017-01-31T04:05:40.685Z,6.49
2017-01-31T04:06:40.695Z,6.51
2017-01-31T04:07:40.720Z,6.48
2017-01-31T04:08:40.723Z,6.44
2017-01-31T04:09:40.737Z,6.51
2017-01-31T04:10:40.743Z,6.45
2017-01-31T04:11:40.758Z,6.49
2017-01-31T04:12:40.770Z,6.49
2017-01-31T04:13:40.779Z,6.44
2017-01-31T04:14:40.799Z,6.46
2017-01-31T04:15:40.803Z,6.48
2017-01-31T04:16:40.814Z,6.48
2017-01-31T04:17:40.831Z,6.45
2017-01-31T04:18:40.840Z,6.46
2017-01-31T04:19:40.848Z,6.49
2017-01-31T04:20:40.871Z,6.46
2017-01-31T04:21:40.869Z,6.46
2017-01-31T04:22:40.891Z,6.44
2017-01-31T04:23:40.909Z,6.45
2017-01-31T04:24:40.936Z,6.45
2017-01-31T04:25:40.921Z,6.48
2017-01-31T04:26:40.931Z,6.45
2017-01-31T04:27:40.994Z,6.51
2017-01-31T04:28:40.955Z,6.46
2017-01-31T04:29:40.964Z,6.41
2017-01-31T04:30:40.975Z,6.48
2017-01-31T04:31:40.986Z,6.46
2017-01-31T04:32:40.998Z,6.49
2017-01-31T04:33:40.622Z,6.42
2017-01-31T04:34:41.024Z,6.51
2017-01-31T04:35:41.038Z,6.49
2017-01-31T04:36:41.048Z,6.48
2017-01-31T04:37:41.059Z,6.45
2017-01-31T04:38:41.079Z,6.45
2017-01-31T04:39:41.077Z,6.46
2017-01-31T04:40:41.092Z,6.51
2017-01-31T04:41:41.105Z,6.45
2017-01-31T04:42:41.115Z,6.48
2017-01-31T04:43:40.735Z,6.42
2017-01-31T04:44:41.152Z,6.48
2017-01-31T04:45:41.155Z,6.49
2017-01-31T04:46:41.197Z,6.45
2017-01-31T04:47:41.180Z,6.44
2017-01-31T04:48:41.191Z,6.45
2017-01-31T04:49:41.206Z,6.46
2017-01-31T04:50:41.215Z,6.46
2017-01-31T04:51:41.239Z,6.52
2017-01-31T04:52:41.237Z,6.45
2017-01-31T04:53:41.247Z,6.46
2017-01-31T04:54:40.866Z,6.46
2017-01-31T04:55:41.272Z,6.49
2017-01-31T04:56:41.294Z,6.44
2017-01-31T04:57:41.298Z,6.51
2017-01-31T04:58:41.319Z,6.48
2017-01-31T04:59:41.316Z,6.46
2017-01-31T05:00:41.349Z,6.46
2017-01-31T05:01:41.340Z,6.48
2017-01-31T05:02:41.353Z,6.49
2017-01-31T05:03:41.363Z,6.46
2017-01-31T05:04:41.381Z,6.44
2017-01-31T05:05:41.389Z,6.42
2017-01-31T05:06:41.400Z,6.44
2017-01-31T05:07:41.409Z,6.52
2017-01-31T05:08:41.423Z,6.48
2017-01-31T05:09:41.437Z,6.35
2017-01-31T05:10:41.452Z,6.44
2017-01-31T05:11:41.460Z,6.44
2017-01-31T05:12:41.467Z,6.44
2017-01-31T05:13:41.487Z,6.49
2017-01-31T05:14:41.501Z,6.44
2017-01-31T05:15:41.117Z,6.49
2017-01-31T05:16:41.524Z,6.49
2017-01-31T05:17:41.533Z,6.48
2017-01-31T05:18:41.546Z,6.46
2017-01-31T05:19:41.555Z,6.44
2017-01-31T05:20:41.569Z,6.49
2017-01-31T05:21:41.586Z,6.35
2017-01-31T05:22:41.591Z,6.48
2017-01-31T05:23:41.607Z,6.48
2017-01-31T05:24:41.620Z,6.38
2017-01-31T05:25:41.235Z,6.45
2017-01-31T05:26:41.633Z,6.51
2017-01-31T05:27:41.726Z,6.51
2017-01-31T05:28:41.662Z,6.44
2017-01-31T05:29:41.668Z,6.46
2017-01-31T05:30:41.685Z,6.45
2017-01-31T05:31:41.696Z,6.45
2017-01-31T05:32:41.708Z,6.42
2017-01-31T05:33:41.723Z,6.46
2017-01-31T05:34:41.732Z,6.35
2017-01-31T05:35:41.748Z,6.49
2017-01-31T05:36:41.365Z,6.31
2017-01-31T05:37:41.764Z,6.33
2017-01-31T05:38:41.381Z,6.48
2017-01-31T05:39:41.785Z,6.35
2017-01-31T05:40:41.803Z,6.35
2017-01-31T05:41:41.813Z,6.44
2017-01-31T05:42:41.820Z,6.35
2017-01-31T05:43:41.834Z,6.39
2017-01-31T05:44:41.846Z,6.45
2017-01-31T05:45:41.853Z,6.46
2017-01-31T05:46:41.872Z,6.31
2017-01-31T05:47:41.878Z,6.46
2017-01-31T05:48:41.890Z,6.45
2017-01-31T05:49:41.906Z,6.31
2017-01-31T05:50:41.929Z,6.35
2017-01-31T05:51:41.928Z,6.38
2017-01-31T05:52:41.937Z,6.36
2017-01-31T05:53:41.959Z,6.33
2017-01-31T05:54:41.969Z,6.36
2017-01-31T05:55:41.971Z,6.38
2017-01-31T05:56:41.992Z,6.36
2017-01-31T05:57:42.002Z,6.31
2017-01-31T05:58:42.007Z,6.33
2017-01-31T05:59:42.021Z,6.46
2017-01-31T06:00:42.038Z,6.33
2017-01-31T06:01:42.047Z,6.35
2017-01-31T06:02:42.057Z,6.35
2017-01-31T06:03:42.071Z,6.33
2017-01-31T06:04:42.079Z,6.33
2017-01-31T06:05:42.090Z,6.3
2017-01-31T06:06:42.102Z,6.31
2017-01-31T06:07:42.133Z,6.35
2017-01-31T06:08:42.126Z,6.41
2017-01-31T06:09:42.138Z,6.39
2017-01-31T06:10:42.147Z,6.36
2017-01-31T06:11:42.162Z,6.33
2017-01-31T06:12:42.176Z,6.33
2017-01-31T06:13:42.186Z,6.36
2017-01-31T06:14:42.198Z,6.35
2017-01-31T06:15:42.202Z,6.31
2017-01-31T06:16:41.929Z,6.41
2017-01-31T06:17:42.226Z,6.41
2017-01-31T06:18:42.242Z,6.35
2017-01-31T06:19:42.256Z,6.52
2017-01-31T06:20:42.265Z,6.41
2017-01-31T06:21:42.277Z,6.49
2017-01-31T06:22:42.291Z,6.48
2017-01-31T06:23:42.323Z,6.48
2017-01-31T06:24:42.316Z,6.46
2017-01-31T06:25:42.327Z,6.46
2017-01-31T06:26:41.941Z,6.57
2017-01-31T06:27:42.349Z,6.48
2017-01-31T06:28:42.361Z,6.48
2017-01-31T06:29:42.371Z,6.57
2017-01-31T06:30:42.383Z,6.51
2017-01-31T06:31:42.395Z,6.49
2017-01-31T06:32:42.411Z,6.54
2017-01-31T06:33:42.026Z,6.49
2017-01-31T06:34:42.435Z,6.54
2017-01-31T06:35:42.444Z,6.52
2017-01-31T06:36:42.459Z,6.57
2017-01-31T06:37:42.474Z,6.57
2017-01-31T06:38:42.085Z,6.62
2017-01-31T06:39:42.488Z,6.46
2017-01-31T06:40:42.109Z,6.51
2017-01-31T06:41:42.516Z,6.57
2017-01-31T06:42:42.518Z,6.51
2017-01-31T06:43:42.538Z,6.48
2017-01-31T06:44:42.221Z,6.52
2017-01-31T06:45:42.549Z,6.49
2017-01-31T06:46:42.570Z,6.48
2017-01-31T06:47:42.585Z,6.48
2017-01-31T06:48:42.591Z,6.48
2017-01-31T06:49:42.618Z,6.46
2017-01-31T06:50:42.621Z,6.48
2017-01-31T06:51:42.627Z,6.52
2017-01-31T06:52:42.649Z,6.31
2017-01-31T06:53:42.656Z,6.48
2017-01-31T06:54:42.666Z,6.44
2017-01-31T06:55:42.674Z,6.33
2017-01-31T06:56:42.688Z,6.51
2017-01-31T06:57:42.704Z,6.31
2017-01-31T06:58:42.714Z,6.49
2017-01-31T06:59:42.723Z,6.46
2017-01-31T07:00:42.741Z,6.42
2017-01-31T07:01:42.745Z,6.31
2017-01-31T07:02:42.765Z,6.39
2017-01-31T07:03:42.772Z,6.35
2017-01-31T07:04:42.385Z,6.36
2017-01-31T07:05:42.792Z,6.36
2017-01-31T07:06:42.814Z,6.33
2017-01-31T07:07:42.817Z,6.31
2017-01-31T07:08:42.828Z,6.41
2017-01-31T07:09:42.840Z,6.39
2017-01-31T07:10:42.850Z,6.33
2017-01-31T07:11:42.873Z,6.31
2017-01-31T07:12:42.877Z,6.38
2017-01-31T07:13:42.883Z,6.36
2017-01-31T07:14:42.904Z,6.39
2017-01-31T07:15:42.910Z,6.31
2017-01-31T07:16:42.921Z,6.36
2017-01-31T07:17:42.933Z,6.39
2017-01-31T07:18:42.953Z,6.39
2017-01-31T07:19:42.956Z,6.38
2017-01-31T07:20:42.970Z,6.36
2017-01-31T07:21:42.981Z,6.38
2017-01-31T07:22:42.988Z,6.35
2017-01-31T07:23:43.040Z,6.33
2017-01-31T07:24:43.016Z,6.38
2017-01-31T07:25:43.028Z,6.36
2017-01-31T07:26:43.043Z,6.36
2017-01-31T07:27:43.050Z,6.39
2017-01-31T07:28:43.057Z,6.31
2017-01-31T07:29:43.074Z,6.33
2017-01-31T07:30:43.087Z,6.38
2017-01-31T07:31:43.093Z,6.36
2017-01-31T07:32:43.107Z,6.35
2017-01-31T07:33:43.128Z,6.33
2017-01-31T07:34:42.741Z,6.33
2017-01-31T07:35:43.150Z,6.35
2017-01-31T07:36:42.762Z,6.38
2017-01-31T07:37:42.777Z,6.36
2017-01-31T07:38:43.185Z,6.33
2017-01-31T07:39:42.798Z,6.33
2017-01-31T07:40:43.205Z,6.36
2017-01-31T07:41:42.814Z,6.28
2017-01-31T07:42:42.832Z,6.38
2017-01-31T07:43:43.238Z,6.39
2017-01-31T07:44:42.852Z,6.41
2017-01-31T07:45:42.863Z,6.31
2017-01-31T07:46:43.271Z,6.31
2017-01-31T07:47:43.281Z,6.31
2017-01-31T07:48:42.901Z,6.33
2017-01-31T07:49:43.311Z,6.31
2017-01-31T07:50:43.318Z,6.38
2017-01-31T07:51:42.936Z,6.33
2017-01-31T07:52:43.344Z,6.33
2017-01-31T07:53:42.961Z,6.36
2017-01-31T07:54:42.971Z,6.28
2017-01-31T07:55:43.380Z,6.45
2017-01-31T07:56:43.390Z,6.41
2017-01-31T07:57:43.003Z,6.33
2017-01-31T07:58:43.013Z,6.33
2017-01-31T07:59:43.029Z,6.46
2017-01-31T08:00:43.040Z,6.35
2017-01-31T08:01:43.446Z,6.41
2017-01-31T08:02:43.069Z,6.41
2017-01-31T08:03:43.072Z,6.33
2017-01-31T08:04:42.691Z,6.33
2017-01-31T08:05:43.502Z,6.45
2017-01-31T08:06:43.108Z,6.46
2017-01-31T08:07:43.125Z,6.31
2017-01-31T08:08:43.535Z,6.42
2017-01-31T08:09:42.748Z,6.48
2017-01-31T08:10:43.163Z,6.49
2017-01-31T08:11:43.173Z,6.46
2017-01-31T08:12:43.619Z,6.49
2017-01-31T08:13:43.591Z,6.52
2017-01-31T08:14:42.809Z,6.49
2017-01-31T08:15:43.224Z,6.48
2017-01-31T08:16:43.625Z,6.49
2017-01-31T08:17:43.636Z,6.49
2017-01-31T08:18:43.644Z,6.49
2017-01-31T08:19:43.663Z,6.49
2017-01-31T08:20:43.709Z,6.49
2017-01-31T08:21:43.686Z,6.45
2017-01-31T08:22:43.696Z,6.46
2017-01-31T08:23:43.703Z,6.54
2017-01-31T08:24:43.718Z,6.56
2017-01-31T08:25:43.730Z,6.46
2017-01-31T08:26:42.956Z,6.51
2017-01-31T08:27:43.754Z,6.51
2017-01-31T08:28:43.764Z,6.54
2017-01-31T08:29:43.776Z,6.42
2017-01-31T08:30:43.787Z,6.48
2017-01-31T08:31:43.801Z,6.57
2017-01-31T08:32:43.813Z,6.52
2017-01-31T08:33:43.826Z,6.57
2017-01-31T08:34:43.056Z,6.6
2017-01-31T08:35:43.863Z,6.51
2017-01-31T08:36:43.862Z,6.57
2017-01-31T08:37:43.873Z,6.51
2017-01-31T08:38:43.890Z,6.51
2017-01-31T08:39:43.898Z,6.51
2017-01-31T08:40:43.907Z,6.57
2017-01-31T08:41:43.921Z,6.51
2017-01-31T08:42:43.931Z,6.57
2017-01-31T08:43:43.954Z,6.48
2017-01-31T08:44:43.961Z,6.57
2017-01-31T08:45:43.962Z,6.48
2017-01-31T08:46:43.984Z,6.51
2017-01-31T08:47:43.989Z,6.51
2017-01-31T08:48:44.004Z,6.51
2017-01-31T08:49:44.011Z,6.57
2017-01-31T08:50:44.028Z,6.57
2017-01-31T08:51:44.039Z,6.51
2017-01-31T08:52:44.050Z,6.59
2017-01-31T08:53:44.061Z,6.54
2017-01-31T08:54:44.067Z,6.54
2017-01-31T08:55:43.701Z,6.57
2017-01-31T08:56:44.095Z,6.57
2017-01-31T08:57:44.106Z,6.57
2017-01-31T08:58:44.123Z,6.52
2017-01-31T08:59:44.136Z,6.56
2017-01-31T09:00:44.142Z,6.54
2017-01-31T09:01:44.153Z,6.54
2017-01-31T09:02:44.169Z,6.57
2017-01-31T09:03:44.180Z,6.57
2017-01-31T09:04:44.194Z,6.52
2017-01-31T09:05:44.236Z,6.52
2017-01-31T09:06:44.213Z,6.57
2017-01-31T09:07:44.226Z,6.59
2017-01-31T09:08:44.238Z,6.57
2017-01-31T09:09:44.249Z,6.57
2017-01-31T09:10:44.267Z,6.59
2017-01-31T09:11:44.286Z,6.59
2017-01-31T09:12:44.285Z,6.62
2017-01-31T09:13:43.899Z,6.54
2017-01-31T09:14:44.309Z,6.57
2017-01-31T09:15:44.326Z,6.51
2017-01-31T09:16:43.933Z,6.51
2017-01-31T09:17:44.345Z,6.59
2017-01-31T09:18:44.360Z,6.54
2017-01-31T09:19:44.388Z,6.56
2017-01-31T09:20:44.380Z,6.57
2017-01-31T09:21:44.390Z,6.54
2017-01-31T09:22:44.403Z,6.56
2017-01-31T09:23:44.022Z,6.51
2017-01-31T09:24:44.028Z,6.54
2017-01-31T09:25:44.044Z,6.57
2017-01-31T09:26:44.450Z,6.57
2017-01-31T09:27:44.069Z,6.51
2017-01-31T09:28:44.524Z,6.48
2017-01-31T09:29:44.491Z,6.46
2017-01-31T09:30:44.499Z,6.54
2017-01-31T09:31:44.518Z,6.46
2017-01-31T09:32:44.515Z,6.52
2017-01-31T09:33:44.532Z,6.57
2017-01-31T09:34:44.147Z,6.48
2017-01-31T09:35:44.559Z,6.54
2017-01-31T09:36:44.568Z,6.49
2017-01-31T09:37:44.579Z,6.56
2017-01-31T09:38:44.593Z,6.57
2017-01-31T09:39:44.602Z,6.52
2017-01-31T09:40:44.611Z,6.49
2017-01-31T09:41:44.629Z,6.54
2017-01-31T09:42:44.645Z,6.51
2017-01-31T09:43:44.646Z,6.56
2017-01-31T09:44:44.666Z,6.59
2017-01-31T09:45:44.676Z,6.51
2017-01-31T09:46:44.685Z,6.54
2017-01-31T09:47:44.699Z,6.48
2017-01-31T09:48:44.711Z,6.52
2017-01-31T09:49:44.724Z,6.52
2017-01-31T09:50:44.727Z,6.51
2017-01-31T09:51:44.746Z,6.49
2017-01-31T09:52:44.760Z,6.59
2017-01-31T09:53:44.765Z,6.48
2017-01-31T09:54:44.780Z,6.51
2017-01-31T09:55:44.790Z,6.56
2017-01-31T09:56:44.806Z,6.54
2017-01-31T09:57:44.815Z,6.57
2017-01-31T09:58:44.844Z,6.62
2017-01-31T09:59:44.837Z,6.52
2017-01-31T10:00:44.850Z,6.56
2017-01-31T10:01:44.860Z,6.59
2017-01-31T10:02:44.875Z,6.57
2017-01-31T10:03:44.892Z,6.49
2017-01-31T10:04:44.898Z,6.54
2017-01-31T10:05:44.915Z,6.54
2017-01-31T10:06:44.537Z,6.6
2017-01-31T10:07:44.942Z,6.52
2017-01-31T10:08:44.953Z,6.56
2017-01-31T10:09:44.961Z,6.56
2017-01-31T10:10:44.974Z,6.56
2017-01-31T10:11:44.983Z,6.56
2017-01-31T10:12:44.995Z,6.6
2017-01-31T10:13:45.001Z,6.56
2017-01-31T10:14:45.018Z,6.51
2017-01-31T10:15:45.027Z,6.62
2017-01-31T10:16:45.040Z,6.49
2017-01-31T10:17:44.656Z,6.59
2017-01-31T10:18:45.096Z,6.56
2017-01-31T10:19:45.074Z,6.62
2017-01-31T10:20:45.089Z,6.59
2017-01-31T10:21:45.100Z,6.62
2017-01-31T10:22:45.107Z,6.6
2017-01-31T10:23:45.134Z,6.62
2017-01-31T10:24:45.133Z,6.62
2017-01-31T10:25:45.152Z,6.57
2017-01-31T10:26:44.765Z,6.62
2017-01-31T10:27:45.175Z,6.69
2017-01-31T10:28:45.184Z,6.62
2017-01-31T10:29:45.192Z,6.67
2017-01-31T10:30:45.210Z,6.67
2017-01-31T10:31:44.817Z,6.67
2017-01-31T10:32:44.836Z,6.69
2017-01-31T10:33:44.846Z,6.64
2017-01-31T10:34:44.858Z,6.75
2017-01-31T10:35:44.867Z,6.74
2017-01-31T10:36:44.884Z,6.62
2017-01-31T10:37:44.893Z,6.6
2017-01-31T10:38:45.301Z,6.67
2017-01-31T10:39:45.310Z,6.69
2017-01-31T10:40:45.322Z,6.72
2017-01-31T10:41:44.937Z,6.66
2017-01-31T10:42:45.346Z,6.64
2017-01-31T10:43:44.962Z,6.62
2017-01-31T10:44:44.976Z,6.66
2017-01-31T10:45:44.985Z,6.72
2017-01-31T10:46:44.995Z,6.67
2017-01-31T10:47:45.400Z,6.7
2017-01-31T10:48:45.023Z,6.69
2017-01-31T10:49:45.431Z,6.72
2017-01-31T10:50:45.451Z,6.77
2017-01-31T10:51:45.066Z,6.7
2017-01-31T10:52:45.470Z,6.7
2017-01-31T10:53:45.081Z,6.75
2017-01-31T10:54:45.490Z,6.69
2017-01-31T10:55:45.508Z,6.77
2017-01-31T10:56:45.117Z,6.75
2017-01-31T10:57:45.524Z,6.78
2017-01-31T10:58:45.537Z,6.75
2017-01-31T10:59:45.549Z,6.79
2017-01-31T11:00:45.567Z,6.84
2017-01-31T11:01:45.578Z,6.84
2017-01-31T11:02:45.585Z,6.79
2017-01-31T11:03:45.600Z,6.84
2017-01-31T11:04:45.214Z,6.84
2017-01-31T11:05:45.621Z,6.87
2017-01-31T11:06:45.635Z,6.84
2017-01-31T11:07:45.653Z,6.84
2017-01-31T11:08:45.663Z,6.77
2017-01-31T11:09:45.665Z,6.77
2017-01-31T11:10:45.686Z,6.84
2017-01-31T11:11:45.692Z,6.84
2017-01-31T11:12:45.734Z,6.82
2017-01-31T11:13:45.321Z,6.82
2017-01-31T11:14:45.335Z,6.81
2017-01-31T11:15:45.744Z,6.92
2017-01-31T11:16:45.758Z,6.89
2017-01-31T11:17:45.772Z,6.81
2017-01-31T11:18:45.783Z,6.84
2017-01-31T11:19:45.787Z,6.85
2017-01-31T11:20:45.803Z,6.89
2017-01-31T11:21:45.424Z,6.89
2017-01-31T11:22:45.827Z,6.87
2017-01-31T11:23:45.844Z,6.92
2017-01-31T11:24:45.857Z,6.88
2017-01-31T11:25:45.867Z,6.85
2017-01-31T11:26:45.878Z,6.82
2017-01-31T11:27:45.885Z,6.82
2017-01-31T11:28:45.502Z,6.79
2017-01-31T11:29:45.911Z,6.81
2017-01-31T11:30:45.925Z,6.81
2017-01-31T11:31:45.933Z,6.75
2017-01-31T11:32:45.972Z,6.82
2017-01-31T11:33:45.956Z,6.84
2017-01-31T11:34:45.972Z,6.81
2017-01-31T11:35:45.983Z,6.77
2017-01-31T11:36:45.998Z,6.81
2017-01-31T11:37:46.005Z,6.84
2017-01-31T11:38:46.064Z,6.84
2017-01-31T11:39:46.033Z,6.89
2017-01-31T11:40:46.049Z,6.85
2017-01-31T11:41:46.059Z,6.81
2017-01-31T11:42:46.067Z,6.84
2017-01-31T11:43:46.079Z,6.92
2017-01-31T11:44:46.124Z,6.87
2017-01-31T11:45:46.100Z,6.85
2017-01-31T11:46:46.117Z,6.84
2017-01-31T11:47:46.129Z,6.89
2017-01-31T11:48:46.143Z,6.87
2017-01-31T11:49:46.158Z,6.85
2017-01-31T11:50:46.173Z,6.88
2017-01-31T11:51:46.187Z,6.85
2017-01-31T11:52:46.185Z,6.92
2017-01-31T11:53:46.207Z,6.92
2017-01-31T11:54:46.209Z,6.88
2017-01-31T11:55:46.227Z,6.93
2017-01-31T11:56:46.249Z,6.85
2017-01-31T11:57:46.254Z,6.92
2017-01-31T11:58:45.869Z,6.88
2017-01-31T11:59:46.278Z,6.92
2017-01-31T12:00:46.296Z,6.93
2017-01-31T12:01:46.300Z,7.02
2017-01-31T12:02:45.914Z,6.89
2017-01-31T12:03:46.332Z,6.93
2017-01-31T12:04:46.341Z,6.95
2017-01-31T12:05:45.952Z,7
2017-01-31T12:06:46.361Z,6.92
2017-01-31T12:07:46.377Z,6.96
2017-01-31T12:08:46.386Z,7.05
2017-01-31T12:09:46.400Z,7
2017-01-31T12:10:46.414Z,7.02
2017-01-31T12:11:46.425Z,7.02
2017-01-31T12:12:46.436Z,7.05
2017-01-31T12:13:46.447Z,7.11
2017-01-31T12:14:46.062Z,7.06
2017-01-31T12:15:46.470Z,7.02
2017-01-31T12:16:46.486Z,7.06
2017-01-31T12:17:46.098Z,7.1
2017-01-31T12:18:46.118Z,7.07
2017-01-31T12:19:46.522Z,7.15
2017-01-31T12:20:46.529Z,7.17
2017-01-31T12:21:46.547Z,7.21
2017-01-31T12:22:46.164Z,7.21
2017-01-31T12:23:46.175Z,7.15
2017-01-31T12:24:46.586Z,7.21
2017-01-31T12:25:46.624Z,7.23
2017-01-31T12:26:46.605Z,7.2
2017-01-31T12:27:46.622Z,7.2
2017-01-31T12:28:46.627Z,7.14
2017-01-31T12:29:46.643Z,7.15
2017-01-31T12:30:46.667Z,7.17
2017-01-31T12:31:46.663Z,7.17
2017-01-31T12:32:46.685Z,7.23
2017-01-31T12:33:46.693Z,7.14
2017-01-31T12:34:46.707Z,7.24
2017-01-31T12:35:46.716Z,7.24
2017-01-31T12:36:46.729Z,7.21
2017-01-31T12:37:46.747Z,7.31
2017-01-31T12:38:46.757Z,7.39
2017-01-31T12:39:46.765Z,7.33
2017-01-31T12:40:46.784Z,7.25
2017-01-31T12:41:46.786Z,7.29
2017-01-31T12:42:46.804Z,7.29
2017-01-31T12:43:46.814Z,7.33
2017-01-31T12:44:46.827Z,7.33
2017-01-31T12:45:46.837Z,7.33
2017-01-31T12:46:46.853Z,7.36
2017-01-31T12:47:46.864Z,7.33
2017-01-31T12:48:46.876Z,7.36
2017-01-31T12:49:46.890Z,7.33
2017-01-31T12:50:46.906Z,7.36
2017-01-31T12:51:46.943Z,7.35
2017-01-31T12:52:46.926Z,7.36
2017-01-31T12:53:46.942Z,7.36
2017-01-31T12:54:46.952Z,7.36
2017-01-31T12:55:46.967Z,7.4
2017-01-31T12:56:46.983Z,7.36
2017-01-31T12:57:46.986Z,7.33
2017-01-31T12:58:47.005Z,7.4
2017-01-31T12:59:47.016Z,7.4
2017-01-31T13:00:47.030Z,7.4
2017-01-31T13:01:47.038Z,7.39
2017-01-31T13:02:47.047Z,7.43
2017-01-31T13:03:47.064Z,7.5
2017-01-31T13:04:47.079Z,7.4
2017-01-31T13:05:47.089Z,7.42
2017-01-31T13:06:47.097Z,7.39
2017-01-31T13:07:47.119Z,7.42
2017-01-31T13:08:47.152Z,7.39
2017-01-31T13:09:47.147Z,7.38
2017-01-31T13:10:47.154Z,7.36
2017-01-31T13:11:47.166Z,7.47
2017-01-31T13:12:47.194Z,7.39
2017-01-31T13:13:47.193Z,7.43
2017-01-31T13:14:47.211Z,7.38
2017-01-31T13:15:47.214Z,7.48
2017-01-31T13:16:47.223Z,7.42
2017-01-31T13:17:47.243Z,7.45
2017-01-31T13:18:47.253Z,7.4
2017-01-31T13:19:47.262Z,7.38